createdAt,value
2016-05-06T00:00:00.226Z,13.19
2016-05-06T00:00:10.054Z,13.22
2016-05-06T00:00:20.072Z,13.26
2016-05-06T00:00:30.228Z,13.22
2016-05-06T00:00:40.228Z,13.15
2016-05-06T00:00:50.244Z,13.22
2016-05-06T00:01:00.259Z,13.23
2016-05-06T00:01:10.103Z,13.19
2016-05-06T00:01:20.261Z,13.23
2016-05-06T00:01:30.261Z,13.17
2016-05-06T00:01:40.261Z,13.17
2016-05-06T00:01:50.261Z,13.2
2016-05-06T00:02:00.121Z,13.14
2016-05-06T00:02:10.277Z,13.1
2016-05-06T00:02:20.297Z,13.22
2016-05-06T00:02:30.297Z,13.17
2016-05-06T00:02:40.297Z,13.23
2016-05-06T00:02:50.312Z,13.22
2016-05-06T00:03:00.312Z,13.15
2016-05-06T00:03:10.312Z,13.19
2016-05-06T00:03:20.315Z,13.23
2016-05-06T00:03:30.331Z,13.14
2016-05-06T00:03:40.331Z,13.15
2016-05-06T00:03:50.346Z,13.12
2016-05-06T00:04:00.346Z,13.15
2016-05-06T00:04:10.346Z,13.19
2016-05-06T00:04:20.364Z,13.17
2016-05-06T00:04:30.364Z,13.15
2016-05-06T00:04:40.364Z,13.12
2016-05-06T00:04:50.364Z,13.15
2016-05-06T00:05:00.380Z,13.19
2016-05-06T00:05:10.380Z,13.15
2016-05-06T00:05:20.225Z,13.19
2016-05-06T00:05:30.397Z,13.12
2016-05-06T00:05:40.397Z,13.12
2016-05-06T00:05:50.257Z,13.07
2016-05-06T00:06:00.397Z,13.14
2016-05-06T00:06:10.413Z,13.11
2016-05-06T00:06:20.416Z,13.12
2016-05-06T00:06:30.416Z,13.05
2016-05-06T00:06:40.275Z,13.01
2016-05-06T00:06:50.432Z,13.14
2016-05-06T00:07:00.432Z,13.15
2016-05-06T00:07:10.447Z,13.08
2016-05-06T00:07:20.449Z,13.11
2016-05-06T00:07:30.449Z,13.05
2016-05-06T00:07:40.465Z,13.12
2016-05-06T00:07:50.309Z,13.03
2016-05-06T00:08:00.465Z,13.2
2016-05-06T00:08:10.480Z,13.1
2016-05-06T00:08:20.500Z,13.11
2016-05-06T00:08:30.500Z,13.07
2016-05-06T00:08:40.500Z,13.2
2016-05-06T00:08:50.500Z,13.11
2016-05-06T00:09:00.500Z,13.03
2016-05-06T00:09:10.516Z,13.15
2016-05-06T00:09:20.518Z,13.01
2016-05-06T00:09:30.518Z,13.05
2016-05-06T00:09:40.361Z,13.03
2016-05-06T00:09:50.533Z,13.11
2016-05-06T00:10:00.533Z,13.1
2016-05-06T00:10:10.549Z,13.07
2016-05-06T00:10:20.755Z,13.05
2016-05-06T00:10:30.458Z,13.1
2016-05-06T00:10:40.552Z,13.07
2016-05-06T00:10:50.427Z,13.07
2016-05-06T00:11:00.755Z,13.1
2016-05-06T00:11:10.568Z,13.08
2016-05-06T00:11:20.585Z,13.01
2016-05-06T00:11:30.585Z,13.05
2016-05-06T00:11:40.601Z,13.04
2016-05-06T00:11:50.601Z,13.11
2016-05-06T00:12:00.601Z,13.05
2016-05-06T00:12:10.601Z,13
2016-05-06T00:12:21.495Z,13.03
2016-05-06T00:12:30.620Z,13.01
2016-05-06T00:12:40.620Z,13.01
2016-05-06T00:12:51.152Z,13.04
2016-05-06T00:13:00.620Z,13.07
2016-05-06T00:13:10.636Z,13.03
2016-05-06T00:13:20.638Z,13.04
2016-05-06T00:13:30.654Z,13.04
2016-05-06T00:13:40.654Z,13.03
2016-05-06T00:13:50.654Z,13.04
2016-05-06T00:14:00.669Z,13.11
2016-05-06T00:14:10.513Z,13.01
2016-05-06T00:14:20.672Z,13.04
2016-05-06T00:14:30.688Z,13.12
2016-05-06T00:14:40.688Z,13.03
2016-05-06T00:14:50.704Z,13.04
2016-05-06T00:15:00.704Z,13.07
2016-05-06T00:15:10.704Z,12.96
2016-05-06T00:15:20.706Z,13.07
2016-05-06T00:15:30.706Z,13.04
2016-05-06T00:15:40.721Z,13
2016-05-06T00:15:50.565Z,13
2016-05-06T00:16:00.737Z,13
2016-05-06T00:16:10.737Z,13.05
2016-05-06T00:16:20.740Z,13.04
2016-05-06T00:16:30.740Z,13
2016-05-06T00:16:40.755Z,13.01
2016-05-06T00:16:50.599Z,13.01
2016-05-06T00:17:00.755Z,13
2016-05-06T00:17:10.771Z,12.97
2016-05-06T00:17:20.773Z,13
2016-05-06T00:17:30.773Z,13.01
2016-05-06T00:17:40.773Z,12.97
2016-05-06T00:17:50.789Z,13.04
2016-05-06T00:18:00.789Z,13.04
2016-05-06T00:18:10.664Z,13.04
2016-05-06T00:18:20.808Z,13.04
2016-05-06T00:18:30.824Z,13
2016-05-06T00:18:40.824Z,13.05
2016-05-06T00:18:50.824Z,12.95
2016-05-06T00:19:00.824Z,12.95
2016-05-06T00:19:10.824Z,13
2016-05-06T00:19:20.842Z,12.96
2016-05-06T00:19:30.857Z,12.93
2016-05-06T00:19:40.842Z,12.93
2016-05-06T00:19:50.857Z,12.9
2016-05-06T00:20:00.857Z,12.96
2016-05-06T00:20:10.857Z,12.85
2016-05-06T00:20:20.875Z,12.96
2016-05-06T00:20:30.884Z,12.9
2016-05-06T00:20:40.884Z,12.93
2016-05-06T00:20:50.727Z,12.89
2016-05-06T00:21:00.743Z,12.89
2016-05-06T00:21:10.899Z,13
2016-05-06T00:21:20.747Z,12.96
2016-05-06T00:21:30.919Z,12.96
2016-05-06T00:21:40.919Z,12.96
2016-05-06T00:21:50.919Z,12.86
2016-05-06T00:22:00.919Z,12.9
2016-05-06T00:22:10.919Z,12.92
2016-05-06T00:22:20.937Z,13
2016-05-06T00:22:30.952Z,12.89
2016-05-06T00:22:40.952Z,12.97
2016-05-06T00:22:50.952Z,12.89
2016-05-06T00:23:00.952Z,12.85
2016-05-06T00:23:10.952Z,12.85
2016-05-06T00:23:20.971Z,12.95
2016-05-06T00:23:30.971Z,12.89
2016-05-06T00:23:40.986Z,12.96
2016-05-06T00:23:50.971Z,12.93
2016-05-06T00:24:00.986Z,12.87
2016-05-06T00:24:10.986Z,12.92
2016-05-06T00:24:21.004Z,12.93
2016-05-06T00:24:31.004Z,12.89
2016-05-06T00:24:41.004Z,12.95
2016-05-06T00:24:50.863Z,12.9
2016-05-06T00:25:01.020Z,12.9
2016-05-06T00:25:11.020Z,12.95
2016-05-06T00:25:21.038Z,12.82
2016-05-06T00:25:31.398Z,12.83
2016-05-06T00:25:41.054Z,12.82
2016-05-06T00:25:51.163Z,12.89
2016-05-06T00:26:00.898Z,12.86
2016-05-06T00:26:11.054Z,12.89
2016-05-06T00:26:20.916Z,12.89
2016-05-06T00:26:31.073Z,12.9
2016-05-06T00:26:41.073Z,12.9
2016-05-06T00:26:51.073Z,12.9
2016-05-06T00:27:01.088Z,12.82
2016-05-06T00:27:11.088Z,12.85
2016-05-06T00:27:21.091Z,12.86
2016-05-06T00:27:30.951Z,12.85
2016-05-06T00:27:41.107Z,12.83
2016-05-06T00:27:51.107Z,12.92
2016-05-06T00:28:01.122Z,12.86
2016-05-06T00:28:11.122Z,12.9
2016-05-06T00:28:21.124Z,12.85
2016-05-06T00:28:31.124Z,12.89
2016-05-06T00:28:41.140Z,12.79
2016-05-06T00:28:51.140Z,12.87
2016-05-06T00:29:00.984Z,12.89
2016-05-06T00:29:11.171Z,12.87
2016-05-06T00:29:21.159Z,12.9
2016-05-06T00:29:31.174Z,12.87
2016-05-06T00:29:41.174Z,12.85
2016-05-06T00:29:51.174Z,12.83
2016-05-06T00:30:01.174Z,12.83
2016-05-06T00:30:11.190Z,12.82
2016-05-06T00:30:21.037Z,12.86
2016-05-06T00:30:31.193Z,12.85
2016-05-06T00:30:41.209Z,12.83
2016-05-06T00:30:51.052Z,12.83
2016-05-06T00:31:01.052Z,12.78
2016-05-06T00:31:11.209Z,12.78
2016-05-06T00:31:21.226Z,12.78
2016-05-06T00:31:31.226Z,12.83
2016-05-06T00:31:41.226Z,12.78
2016-05-06T00:31:51.242Z,12.83
2016-05-06T00:32:01.242Z,12.79
2016-05-06T00:32:11.242Z,12.82
2016-05-06T00:32:21.104Z,12.82
2016-05-06T00:32:31.260Z,12.78
2016-05-06T00:32:41.260Z,12.75
2016-05-06T00:32:51.276Z,12.79
2016-05-06T00:33:01.276Z,12.82
2016-05-06T00:33:11.120Z,12.77
2016-05-06T00:33:21.295Z,12.82
2016-05-06T00:33:31.295Z,12.74
2016-05-06T00:33:41.295Z,12.79
2016-05-06T00:33:51.295Z,12.83
2016-05-06T00:34:01.310Z,12.79
2016-05-06T00:34:11.310Z,12.78
2016-05-06T00:34:21.328Z,12.83
2016-05-06T00:34:31.328Z,12.78
2016-05-06T00:34:41.344Z,12.77
2016-05-06T00:34:51.344Z,12.74
2016-05-06T00:35:01.187Z,12.74
2016-05-06T00:35:11.344Z,12.74
2016-05-06T00:35:21.348Z,12.75
2016-05-06T00:35:31.363Z,12.75
2016-05-06T00:35:41.363Z,12.78
2016-05-06T00:35:51.379Z,12.74
2016-05-06T00:36:01.379Z,12.79
2016-05-06T00:36:11.379Z,12.79
2016-05-06T00:36:21.381Z,12.78
2016-05-06T00:36:31.396Z,12.79
2016-05-06T00:36:41.396Z,12.75
2016-05-06T00:36:51.396Z,12.74
2016-05-06T00:37:01.396Z,12.75
2016-05-06T00:37:11.256Z,12.72
2016-05-06T00:37:21.414Z,12.79
2016-05-06T00:37:31.289Z,12.72
2016-05-06T00:37:41.430Z,12.75
2016-05-06T00:37:51.430Z,12.79
2016-05-06T00:38:01.445Z,12.75
2016-05-06T00:38:11.445Z,12.71
2016-05-06T00:38:21.448Z,12.77
2016-05-06T00:38:31.448Z,12.75
2016-05-06T00:38:41.464Z,12.75
2016-05-06T00:38:51.464Z,12.79
2016-05-06T00:39:01.464Z,12.77
2016-05-06T00:39:11.464Z,12.78
2016-05-06T00:39:21.326Z,12.72
2016-05-06T00:39:31.483Z,12.71
2016-05-06T00:39:41.498Z,12.75
2016-05-06T00:39:51.342Z,12.72
2016-05-06T00:40:01.498Z,12.74
2016-05-06T00:40:11.373Z,12.71
2016-05-06T00:40:21.688Z,12.79
2016-05-06T00:40:31.516Z,12.75
2016-05-06T00:40:41.547Z,12.74
2016-05-06T00:40:51.375Z,12.79
2016-05-06T00:41:01.563Z,12.7
2016-05-06T00:41:11.531Z,12.72
2016-05-06T00:41:21.394Z,12.68
2016-05-06T00:41:31.566Z,12.71
2016-05-06T00:41:41.550Z,12.7
2016-05-06T00:41:51.566Z,12.74
2016-05-06T00:42:01.566Z,12.71
2016-05-06T00:42:11.566Z,12.72
2016-05-06T00:42:21.569Z,12.71
2016-05-06T00:42:31.584Z,12.72
2016-05-06T00:42:41.584Z,12.7
2016-05-06T00:42:51.584Z,12.64
2016-05-06T00:43:01.600Z,12.68
2016-05-06T00:43:11.600Z,12.7
2016-05-06T00:43:21.619Z,12.7
2016-05-06T00:43:31.619Z,12.67
2016-05-06T00:43:41.462Z,12.67
2016-05-06T00:43:51.619Z,12.65
2016-05-06T00:44:01.634Z,12.65
2016-05-06T00:44:11.634Z,12.72
2016-05-06T00:44:21.636Z,12.68
2016-05-06T00:44:31.636Z,12.68
2016-05-06T00:44:41.652Z,12.68
2016-05-06T00:44:51.652Z,12.67
2016-05-06T00:45:01.667Z,12.68
2016-05-06T00:45:11.667Z,12.67
2016-05-06T00:45:21.670Z,12.64
2016-05-06T00:45:31.686Z,12.67
2016-05-06T00:45:41.686Z,12.64
2016-05-06T00:45:51.686Z,12.71
2016-05-06T00:46:01.702Z,12.62
2016-05-06T00:46:11.702Z,12.59
2016-05-06T00:46:21.704Z,12.62
2016-05-06T00:46:31.704Z,12.65
2016-05-06T00:46:41.719Z,12.62
2016-05-06T00:46:51.719Z,12.54
2016-05-06T00:47:01.751Z,12.62
2016-05-06T00:47:11.735Z,12.54
2016-05-06T00:47:21.738Z,12.62
2016-05-06T00:47:31.738Z,12.64
2016-05-06T00:47:41.754Z,12.65
2016-05-06T00:47:51.754Z,12.6
2016-05-06T00:48:01.754Z,12.57
2016-05-06T00:48:11.754Z,12.62
2016-05-06T00:48:21.772Z,12.59
2016-05-06T00:48:31.772Z,12.62
2016-05-06T00:48:41.772Z,12.57
2016-05-06T00:48:51.788Z,12.62
2016-05-06T00:49:01.788Z,12.62
2016-05-06T00:49:11.788Z,12.59
2016-05-06T00:49:21.806Z,12.64
2016-05-06T00:49:31.806Z,12.6
2016-05-06T00:49:41.806Z,12.62
2016-05-06T00:49:51.822Z,12.59
2016-05-06T00:50:01.822Z,12.57
2016-05-06T00:50:11.822Z,12.57
2016-05-06T00:50:21.824Z,12.57
2016-05-06T00:50:31.683Z,12.62
2016-05-06T00:50:41.840Z,12.62
2016-05-06T00:50:51.855Z,12.52
2016-05-06T00:51:01.855Z,12.6
2016-05-06T00:51:11.855Z,12.6
2016-05-06T00:51:21.702Z,12.57
2016-05-06T00:51:31.874Z,12.52
2016-05-06T00:51:41.874Z,12.57
2016-05-06T00:51:51.890Z,12.54
2016-05-06T00:52:01.890Z,12.54
2016-05-06T00:52:11.890Z,12.52
2016-05-06T00:52:21.893Z,12.59
2016-05-06T00:52:31.893Z,12.56
2016-05-06T00:52:41.752Z,12.57
2016-05-06T00:52:51.908Z,12.5
2016-05-06T00:53:01.908Z,12.57
2016-05-06T00:53:11.939Z,12.46
2016-05-06T00:53:21.927Z,12.52
2016-05-06T00:53:31.927Z,12.59
2016-05-06T00:53:41.942Z,12.54
2016-05-06T00:53:51.942Z,12.59
2016-05-06T00:54:01.942Z,12.5
2016-05-06T00:54:11.958Z,12.45
2016-05-06T00:54:21.960Z,12.49
2016-05-06T00:54:31.960Z,12.46
2016-05-06T00:54:41.976Z,12.46
2016-05-06T00:54:51.976Z,12.49
2016-05-06T00:55:01.976Z,12.5
2016-05-06T00:55:11.991Z,12.46
2016-05-06T00:55:22.291Z,12.46
2016-05-06T00:55:31.994Z,12.46
2016-05-06T00:55:41.854Z,12.47
2016-05-06T00:55:52.010Z,12.45
2016-05-06T00:56:02.010Z,12.46
2016-05-06T00:56:12.026Z,12.47
2016-05-06T00:56:22.029Z,12.5
2016-05-06T00:56:32.029Z,12.46
2016-05-06T00:56:42.060Z,12.52
2016-05-06T00:56:52.044Z,12.46
2016-05-06T00:57:02.044Z,12.56
2016-05-06T00:57:12.044Z,12.47
2016-05-06T00:57:22.062Z,12.49
2016-05-06T00:57:32.062Z,12.45
2016-05-06T00:57:42.062Z,12.45
2016-05-06T00:57:52.062Z,12.46
2016-05-06T00:58:02.077Z,12.5
2016-05-06T00:58:12.077Z,12.46
2016-05-06T00:58:22.096Z,12.46
2016-05-06T00:58:32.096Z,12.46
2016-05-06T00:58:42.096Z,12.46
2016-05-06T00:58:52.096Z,12.42
2016-05-06T00:59:02.112Z,12.45
2016-05-06T00:59:12.112Z,12.45
2016-05-06T00:59:21.973Z,12.47
2016-05-06T00:59:32.129Z,12.5
2016-05-06T00:59:42.129Z,12.45
2016-05-06T00:59:52.145Z,12.5
2016-05-06T01:00:02.145Z,12.56
2016-05-06T01:00:12.145Z,12.54
2016-05-06T01:00:22.008Z,12.47
2016-05-06T01:00:32.165Z,12.5
2016-05-06T01:00:42.165Z,12.5
2016-05-06T01:00:52.165Z,12.47
2016-05-06T01:01:02.165Z,12.52
2016-05-06T01:01:12.180Z,12.5
2016-05-06T01:01:22.182Z,12.5
2016-05-06T01:01:32.182Z,12.41
2016-05-06T01:01:42.198Z,12.47
2016-05-06T01:01:52.198Z,12.41
2016-05-06T01:02:02.213Z,12.41
2016-05-06T01:02:12.213Z,12.52
2016-05-06T01:02:22.216Z,12.47
2016-05-06T01:02:32.232Z,12.52
2016-05-06T01:02:42.216Z,12.47
2016-05-06T01:02:52.076Z,12.49
2016-05-06T01:03:02.232Z,12.49
2016-05-06T01:03:12.232Z,12.45
2016-05-06T01:03:22.250Z,12.45
2016-05-06T01:03:32.093Z,12.38
2016-05-06T01:03:42.250Z,12.47
2016-05-06T01:03:52.265Z,12.53
2016-05-06T01:04:02.265Z,12.49
2016-05-06T01:04:12.265Z,12.45
2016-05-06T01:04:22.128Z,12.52
2016-05-06T01:04:32.284Z,12.35
2016-05-06T01:04:42.284Z,12.5
2016-05-06T01:04:52.284Z,12.5
2016-05-06T01:05:02.300Z,12.59
2016-05-06T01:05:12.300Z,12.46
2016-05-06T01:05:22.318Z,12.49
2016-05-06T01:05:32.318Z,12.49
2016-05-06T01:05:42.318Z,12.49
2016-05-06T01:05:52.318Z,12.49
2016-05-06T01:06:02.334Z,12.45
2016-05-06T01:06:12.334Z,12.45
2016-05-06T01:06:22.337Z,12.42
2016-05-06T01:06:32.352Z,12.52
2016-05-06T01:06:42.352Z,12.45
2016-05-06T01:06:52.352Z,12.47
2016-05-06T01:07:02.368Z,12.45
2016-05-06T01:07:12.368Z,12.46
2016-05-06T01:07:22.370Z,12.53
2016-05-06T01:07:32.370Z,12.46
2016-05-06T01:07:42.479Z,12.42
2016-05-06T01:07:52.479Z,12.42
2016-05-06T01:08:02.573Z,12.53
2016-05-06T01:08:12.589Z,12.5
2016-05-06T01:08:22.529Z,12.53
2016-05-06T01:08:32.545Z,12.46
2016-05-06T01:08:42.561Z,12.45
2016-05-06T01:08:52.436Z,12.42
2016-05-06T01:09:02.545Z,12.39
2016-05-06T01:09:12.576Z,12.45
2016-05-06T01:09:22.579Z,12.45
2016-05-06T01:09:32.642Z,12.41
2016-05-06T01:09:42.595Z,12.47
2016-05-06T01:09:52.439Z,12.46
2016-05-06T01:10:02.642Z,12.5
2016-05-06T01:10:12.642Z,12.35
2016-05-06T01:10:22.956Z,12.39
2016-05-06T01:10:32.644Z,12.47
2016-05-06T01:10:42.597Z,12.49
2016-05-06T01:10:52.659Z,12.38
2016-05-06T01:11:02.909Z,12.41
2016-05-06T01:11:12.659Z,12.35
2016-05-06T01:11:22.615Z,12.38
2016-05-06T01:11:32.631Z,12.24
2016-05-06T01:11:42.647Z,12.41
2016-05-06T01:11:52.694Z,12.37
2016-05-06T01:12:02.365Z,12.45
2016-05-06T01:12:12.522Z,12.45
2016-05-06T01:12:22.539Z,12.37
2016-05-06T01:12:32.539Z,12.42
2016-05-06T01:12:42.539Z,12.38
2016-05-06T01:12:52.555Z,12.38
2016-05-06T01:13:02.555Z,12.41
2016-05-06T01:13:12.555Z,12.35
2016-05-06T01:13:22.559Z,12.39
2016-05-06T01:13:32.575Z,12.47
2016-05-06T01:13:42.575Z,12.37
2016-05-06T01:13:52.575Z,12.39
2016-05-06T01:14:02.590Z,12.37
2016-05-06T01:14:12.590Z,12.34
2016-05-06T01:14:22.608Z,12.37
2016-05-06T01:14:32.608Z,12.45
2016-05-06T01:14:42.608Z,12.39
2016-05-06T01:14:52.608Z,12.42
2016-05-06T01:15:02.623Z,12.34
2016-05-06T01:15:12.623Z,12.35
2016-05-06T01:15:22.470Z,12.41
2016-05-06T01:15:32.642Z,12.39
2016-05-06T01:15:42.486Z,12.32
2016-05-06T01:15:52.642Z,12.41
2016-05-06T01:16:02.501Z,12.39
2016-05-06T01:16:12.658Z,12.38
2016-05-06T01:16:22.660Z,12.35
2016-05-06T01:16:32.660Z,12.35
2016-05-06T01:16:42.519Z,12.38
2016-05-06T01:16:52.675Z,12.37
2016-05-06T01:17:02.535Z,12.38
2016-05-06T01:17:12.519Z,12.37
2016-05-06T01:17:22.694Z,12.39
2016-05-06T01:17:32.694Z,12.29
2016-05-06T01:17:42.710Z,12.37
2016-05-06T01:17:52.710Z,12.32
2016-05-06T01:18:02.710Z,12.31
2016-05-06T01:18:12.725Z,12.38
2016-05-06T01:18:22.728Z,12.35
2016-05-06T01:18:32.728Z,12.32
2016-05-06T01:18:42.744Z,12.31
2016-05-06T01:18:52.744Z,12.34
2016-05-06T01:19:02.744Z,12.38
2016-05-06T01:19:12.744Z,12.27
2016-05-06T01:19:22.606Z,12.32
2016-05-06T01:19:32.762Z,12.31
2016-05-06T01:19:42.762Z,12.37
2016-05-06T01:19:52.762Z,12.31
2016-05-06T01:20:02.778Z,12.31
2016-05-06T01:20:12.778Z,12.31
2016-05-06T01:20:22.780Z,12.34
2016-05-06T01:20:32.796Z,12.31
2016-05-06T01:20:42.796Z,12.31
2016-05-06T01:20:52.796Z,12.34
2016-05-06T01:21:02.811Z,12.24
2016-05-06T01:21:12.811Z,12.31
2016-05-06T01:21:22.813Z,12.35
2016-05-06T01:21:32.673Z,12.35
2016-05-06T01:21:42.829Z,12.35
2016-05-06T01:21:52.829Z,12.34
2016-05-06T01:22:02.845Z,12.32
2016-05-06T01:22:12.845Z,12.31
2016-05-06T01:22:22.849Z,12.27
2016-05-06T01:22:32.849Z,12.35
2016-05-06T01:22:42.864Z,12.27
2016-05-06T01:22:52.864Z,12.27
2016-05-06T01:23:02.864Z,12.27
2016-05-06T01:23:12.895Z,12.23
2016-05-06T01:23:22.897Z,12.23
2016-05-06T01:23:32.882Z,12.27
2016-05-06T01:23:42.741Z,12.19
2016-05-06T01:23:52.897Z,12.32
2016-05-06T01:24:02.897Z,12.28
2016-05-06T01:24:12.897Z,12.27
2016-05-06T01:24:22.916Z,12.24
2016-05-06T01:24:32.916Z,12.28
2016-05-06T01:24:42.916Z,12.21
2016-05-06T01:24:52.932Z,12.24
2016-05-06T01:25:02.932Z,12.24
2016-05-06T01:25:12.932Z,12.21
2016-05-06T01:25:22.949Z,12.23
2016-05-06T01:25:32.949Z,12.31
2016-05-06T01:25:42.965Z,12.27
2016-05-06T01:25:53.168Z,12.2
2016-05-06T01:26:02.965Z,12.29
2016-05-06T01:26:12.965Z,12.28
2016-05-06T01:26:22.969Z,12.29
2016-05-06T01:26:32.985Z,12.2
2016-05-06T01:26:42.985Z,12.2
2016-05-06T01:26:53.000Z,12.21
2016-05-06T01:27:02.844Z,12.19
2016-05-06T01:27:13.000Z,12.28
2016-05-06T01:27:23.018Z,12.27
2016-05-06T01:27:33.018Z,12.24
2016-05-06T01:27:43.018Z,12.2
2016-05-06T01:27:53.018Z,12.21
2016-05-06T01:28:03.033Z,12.19
2016-05-06T01:28:13.033Z,12.21
2016-05-06T01:28:22.880Z,12.24
2016-05-06T01:28:33.036Z,12.27
2016-05-06T01:28:43.052Z,12.2
2016-05-06T01:28:52.896Z,12.24
2016-05-06T01:29:03.068Z,12.19
2016-05-06T01:29:13.068Z,12.19
2016-05-06T01:29:22.913Z,12.19
2016-05-06T01:29:33.070Z,12.17
2016-05-06T01:29:42.929Z,12.2
2016-05-06T01:29:53.085Z,12.19
2016-05-06T01:30:03.101Z,12.21
2016-05-06T01:30:13.101Z,12.19
2016-05-06T01:30:23.104Z,12.19
2016-05-06T01:30:33.104Z,12.17
2016-05-06T01:30:43.120Z,12.19
2016-05-06T01:30:53.120Z,12.27
2016-05-06T01:31:03.120Z,12.2
2016-05-06T01:31:13.120Z,12.19
2016-05-06T01:31:22.982Z,12.19
2016-05-06T01:31:33.138Z,12.14
2016-05-06T01:31:42.998Z,12.21
2016-05-06T01:31:53.154Z,12.16
2016-05-06T01:32:02.998Z,12.19
2016-05-06T01:32:13.154Z,12.23
2016-05-06T01:32:23.015Z,12.17
2016-05-06T01:32:33.171Z,12.2
2016-05-06T01:32:43.171Z,12.2
2016-05-06T01:32:53.171Z,12.21
2016-05-06T01:33:03.031Z,12.17
2016-05-06T01:33:13.031Z,12.2
2016-05-06T01:33:23.190Z,12.17
2016-05-06T01:33:33.206Z,12.21
2016-05-06T01:33:43.206Z,12.17
2016-05-06T01:33:53.221Z,12.17
2016-05-06T01:34:03.221Z,12.2
2016-05-06T01:34:13.221Z,12.19
2016-05-06T01:34:23.239Z,12.14
2016-05-06T01:34:33.239Z,12.2
2016-05-06T01:34:43.239Z,12.21
2016-05-06T01:34:53.239Z,12.21
2016-05-06T01:35:03.255Z,12.23
2016-05-06T01:35:13.255Z,12.2
2016-05-06T01:35:23.259Z,12.2
2016-05-06T01:35:33.259Z,12.19
2016-05-06T01:35:43.274Z,12.19
2016-05-06T01:35:53.290Z,12.19
2016-05-06T01:36:03.274Z,12.19
2016-05-06T01:36:13.290Z,12.17
2016-05-06T01:36:23.292Z,12.17
2016-05-06T01:36:33.292Z,12.13
2016-05-06T01:36:43.307Z,12.23
2016-05-06T01:36:53.307Z,12.19
2016-05-06T01:37:03.307Z,12.14
2016-05-06T01:37:13.307Z,12.16
2016-05-06T01:37:23.325Z,12.14
2016-05-06T01:37:33.325Z,12.17
2016-05-06T01:37:43.341Z,12.17
2016-05-06T01:37:53.356Z,12.21
2016-05-06T01:38:03.341Z,12.13
2016-05-06T01:38:13.341Z,12.13
2016-05-06T01:38:23.359Z,12.13
2016-05-06T01:38:33.359Z,12.17
2016-05-06T01:38:43.375Z,12.19
2016-05-06T01:38:53.219Z,12.1
2016-05-06T01:39:03.375Z,12.16
2016-05-06T01:39:13.375Z,12.09
2016-05-06T01:39:23.395Z,12.12
2016-05-06T01:39:33.395Z,12.16
2016-05-06T01:39:43.395Z,12.17
2016-05-06T01:39:53.426Z,12.19
2016-05-06T01:40:03.410Z,12.23
2016-05-06T01:40:13.410Z,12.13
2016-05-06T01:40:23.428Z,12.12
2016-05-06T01:40:33.818Z,12.1
2016-05-06T01:40:43.818Z,12.19
2016-05-06T01:40:53.428Z,12.09
2016-05-06T01:41:03.443Z,12.21
2016-05-06T01:41:13.443Z,12.14
2016-05-06T01:41:23.445Z,12.12
2016-05-06T01:41:33.461Z,12.14
2016-05-06T01:41:43.461Z,12.1
2016-05-06T01:41:53.461Z,12.12
2016-05-06T01:42:03.461Z,12.09
2016-05-06T01:42:13.477Z,12.16
2016-05-06T01:42:23.481Z,12.12
2016-05-06T01:42:33.481Z,12.14
2016-05-06T01:42:43.496Z,12.09
2016-05-06T01:42:53.496Z,12.16
2016-05-06T01:43:03.496Z,12.14
2016-05-06T01:43:13.512Z,12.13
2016-05-06T01:43:23.514Z,12.13
2016-05-06T01:43:33.530Z,12.14
2016-05-06T01:43:43.373Z,12.16
2016-05-06T01:43:53.530Z,12.14
2016-05-06T01:44:03.530Z,12.14
2016-05-06T01:44:13.545Z,12.07
2016-05-06T01:44:23.548Z,12.16
2016-05-06T01:44:33.548Z,12.14
2016-05-06T01:44:43.564Z,12.01
2016-05-06T01:44:53.564Z,12.19
2016-05-06T01:45:03.564Z,12.05
2016-05-06T01:45:13.579Z,12.05
2016-05-06T01:45:23.581Z,12.12
2016-05-06T01:45:33.581Z,12.13
2016-05-06T01:45:43.597Z,12.05
2016-05-06T01:45:53.597Z,12.05
2016-05-06T01:46:03.597Z,12.16
2016-05-06T01:46:13.597Z,12.07
2016-05-06T01:46:23.444Z,12.17
2016-05-06T01:46:33.459Z,12.14
2016-05-06T01:46:43.616Z,12.07
2016-05-06T01:46:53.631Z,12.14
2016-05-06T01:47:03.631Z,12.05
2016-05-06T01:47:13.475Z,12.04
2016-05-06T01:47:23.634Z,12.12
2016-05-06T01:47:33.650Z,12.05
2016-05-06T01:47:43.666Z,12.09
2016-05-06T01:47:53.666Z,12.1
2016-05-06T01:48:03.666Z,12.14
2016-05-06T01:48:13.666Z,12.02
2016-05-06T01:48:23.669Z,12.1
2016-05-06T01:48:33.669Z,12.07
2016-05-06T01:48:43.684Z,12.09
2016-05-06T01:48:53.528Z,12.07
2016-05-06T01:49:03.684Z,12.09
2016-05-06T01:49:13.700Z,12.02
2016-05-06T01:49:23.702Z,12.09
2016-05-06T01:49:33.717Z,12.05
2016-05-06T01:49:43.717Z,12.04
2016-05-06T01:49:53.733Z,12.1
2016-05-06T01:50:03.717Z,12.07
2016-05-06T01:50:13.717Z,12.09
2016-05-06T01:50:23.735Z,12.09
2016-05-06T01:50:33.751Z,12.05
2016-05-06T01:50:43.610Z,12.09
2016-05-06T01:50:53.751Z,12.09
2016-05-06T01:51:03.766Z,12.02
2016-05-06T01:51:13.766Z,12.09
2016-05-06T01:51:23.614Z,12.05
2016-05-06T01:51:33.770Z,12.1
2016-05-06T01:51:43.770Z,12.07
2016-05-06T01:51:53.786Z,12.07
2016-05-06T01:52:03.802Z,12.1
2016-05-06T01:52:13.802Z,11.99
2016-05-06T01:52:23.805Z,11.98
2016-05-06T01:52:33.805Z,11.99
2016-05-06T01:52:43.820Z,12.09
2016-05-06T01:52:53.805Z,12.05
2016-05-06T01:53:03.820Z,11.99
2016-05-06T01:53:13.820Z,11.99
2016-05-06T01:53:23.838Z,12.04
2016-05-06T01:53:33.838Z,11.98
2016-05-06T01:53:43.838Z,11.98
2016-05-06T01:53:53.838Z,11.98
2016-05-06T01:54:03.713Z,12.02
2016-05-06T01:54:13.869Z,12.01
2016-05-06T01:54:23.871Z,12.05
2016-05-06T01:54:33.871Z,12.02
2016-05-06T01:54:43.871Z,12.05
2016-05-06T01:54:53.887Z,12.01
2016-05-06T01:55:03.887Z,12.09
2016-05-06T01:55:13.730Z,12.02
2016-05-06T01:55:24.031Z,12.02
2016-05-06T01:55:33.766Z,12.12
2016-05-06T01:55:43.906Z,12.02
2016-05-06T01:55:53.766Z,12.05
2016-05-06T01:56:05.109Z,12.09
2016-05-06T01:56:13.922Z,12.02
2016-05-06T01:56:23.768Z,12.01
2016-05-06T01:56:33.940Z,12.1
2016-05-06T01:56:43.940Z,12.07
2016-05-06T01:56:53.940Z,12.09
2016-05-06T01:57:03.940Z,12.05
2016-05-06T01:57:13.799Z,12.02
2016-05-06T01:57:23.943Z,12.07
2016-05-06T01:57:33.958Z,12.05
2016-05-06T01:57:43.974Z,12.07
2016-05-06T01:57:53.974Z,12.02
2016-05-06T01:58:03.974Z,12.01
2016-05-06T01:58:13.989Z,12.07
2016-05-06T01:58:23.991Z,12.02
2016-05-06T01:58:33.991Z,12.04
2016-05-06T01:58:43.991Z,12.01
2016-05-06T01:58:54.007Z,12.02
2016-05-06T01:59:04.007Z,11.98
2016-05-06T01:59:14.023Z,12.07
2016-05-06T01:59:24.010Z,12.07
2016-05-06T01:59:34.026Z,12.01
2016-05-06T01:59:44.026Z,12.01
2016-05-06T01:59:54.026Z,12.05
2016-05-06T02:00:04.041Z,12.09
2016-05-06T02:00:14.041Z,12.01
2016-05-06T02:00:24.060Z,12.01
2016-05-06T02:00:34.060Z,11.98
2016-05-06T02:00:44.076Z,11.98
2016-05-06T02:00:54.060Z,11.96
2016-05-06T02:01:04.076Z,12.02
2016-05-06T02:01:14.076Z,11.95
2016-05-06T02:01:24.078Z,11.98
2016-05-06T02:01:34.093Z,12.07
2016-05-06T02:01:44.093Z,12.01
2016-05-06T02:01:54.093Z,11.96
2016-05-06T02:02:04.109Z,12.09
2016-05-06T02:02:14.109Z,11.96
2016-05-06T02:02:24.112Z,11.98
2016-05-06T02:02:34.112Z,11.96
2016-05-06T02:02:43.971Z,12.02
2016-05-06T02:02:53.971Z,11.96
2016-05-06T02:03:04.127Z,12.07
2016-05-06T02:03:14.143Z,12.07
2016-05-06T02:03:24.145Z,11.96
2016-05-06T02:03:34.145Z,12.05
2016-05-06T02:03:44.004Z,12.02
2016-05-06T02:03:54.161Z,11.94
2016-05-06T02:04:04.161Z,12.02
2016-05-06T02:04:14.161Z,11.99
2016-05-06T02:04:24.180Z,11.96
2016-05-06T02:04:34.180Z,12.02
2016-05-06T02:04:44.180Z,12.05
2016-05-06T02:04:54.196Z,11.95
2016-05-06T02:05:04.196Z,12.04
2016-05-06T02:05:14.227Z,11.96
2016-05-06T02:05:24.057Z,11.99
2016-05-06T02:05:34.214Z,12.01
2016-05-06T02:05:44.214Z,11.96
2016-05-06T02:05:54.229Z,12.04
2016-05-06T02:06:04.229Z,12.05
2016-05-06T02:06:14.229Z,12.05
2016-05-06T02:06:24.076Z,11.91
2016-05-06T02:06:34.248Z,11.9
2016-05-06T02:06:44.248Z,11.96
2016-05-06T02:06:54.263Z,11.95
2016-05-06T02:07:04.263Z,12.02
2016-05-06T02:07:14.263Z,11.98
2016-05-06T02:07:24.265Z,11.96
2016-05-06T02:07:34.265Z,11.99
2016-05-06T02:07:44.125Z,11.99
2016-05-06T02:07:54.281Z,11.99
2016-05-06T02:08:04.297Z,11.99
2016-05-06T02:08:14.281Z,11.99
2016-05-06T02:08:24.315Z,11.99
2016-05-06T02:08:34.300Z,11.98
2016-05-06T02:08:44.315Z,11.91
2016-05-06T02:08:54.315Z,11.94
2016-05-06T02:09:04.315Z,11.98
2016-05-06T02:09:14.331Z,12.02